Time;durP1;ratioP1;P1;durP2;ratioP2;P2;SDS_P1;SDS_P2;PMS_P1;PMS_P2;Temp;Humidity;BMP_temperature;BMP_pressure;BME280_temperature;BME280_humidity;BME280_pressure;Samples;Min_cycle;Max_cycle;Signal;HPM_P1;HPM_P2
2022/02/06 00:02:01;;;;;;;1.55;0.80;;;17.10;59.50;;;;;;4979533;28;20041;-55
2022/02/06 00:04:27;;;;;;;1.20;0.93;;;17.10;59.50;;;;;;4981481;28;20660;-58
2022/02/06 00:06:53;;;;;;;4.47;1.02;;;17.10;59.50;;;;;;4988642;28;20044;-57
2022/02/06 00:09:18;;;;;;;16.88;2.70;;;17.10;58.80;;;;;;4964253;28;20443;-61
2022/02/06 00:11:44;;;;;;;19.75;2.42;;;17.00;59.00;;;;;;4979804;28;20031;-60
2022/02/06 00:14:09;;;;;;;17.17;2.03;;;16.90;59.20;;;;;;4985102;28;20026;-56
2022/02/06 00:16:35;;;;;;;12.38;2.13;;;16.90;59.00;;;;;;4984794;28;20459;-66
2022/02/06 00:19:00;;;;;;;10.73;2.28;;;16.80;59.00;;;;;;4985600;28;20451;-66
2022/02/06 00:21:26;;;;;;;10.15;1.98;;;16.80;58.30;;;;;;4964328;28;20670;-64
2022/02/06 00:23:54;;;;;;;5.85;1.83;;;16.80;58.70;;;;;;4982652;28;20096;-65
2022/02/06 00:26:44;;;;;;;3.30;1.60;;;16.70;58.30;;;;;;4985051;28;20126;-63
2022/02/06 00:29:18;;;;;;;5.03;1.20;;;16.70;58.70;;;;;;4981711;28;20133;-64
2022/02/06 00:31:55;;;;;;;4.97;1.27;;;16.70;58.60;;;;;;4984970;28;20039;-64
2022/02/06 00:39:46;;;;;;;2.70;1.02;;;16.60;57.90;;;;;;4967172;28;20084;-64
2022/02/06 00:42:12;;;;;;;4.15;1.00;;;16.60;57.30;;;;;;4967428;28;20058;-64
2022/02/06 00:44:37;;;;;;;2.05;0.75;;;16.60;58.40;;;;;;4985143;28;20503;-65
2022/02/06 00:47:04;;;;;;;1.27;0.88;;;16.60;58.10;;;;;;4983362;28;20075;-64
2022/02/06 00:49:31;;;;;;;1.63;0.93;;;16.60;58.20;;;;;;4967215;28;20031;-65
2022/02/06 00:52:10;;;;;;;4.70;1.05;;;16.50;58.60;;;;;;4950981;28;20105;-64
2022/02/06 00:54:35;;;;;;;3.15;0.95;;;16.50;56.60;;;;;;4979968;28;20035;-67
2022/02/06 00:57:01;;;;;;;2.05;0.98;;;16.50;58.60;;;;;;4984169;28;20041;-65
2022/02/06 00:59:26;;;;;;;3.80;1.20;;;16.50;58.40;;;;;;4983362;28;20031;-65
2022/02/06 01:01:52;;;;;;;1.90;1.00;;;16.50;56.10;;;;;;4984984;28;20030;-65
2022/02/06 01:04:17;;;;;;;2.10;0.90;;;16.40;58.10;;;;;;4982831;28;20038;-65
2022/02/06 01:06:43;;;;;;;2.47;0.90;;;16.40;58.20;;;;;;4965079;28;20177;-65
2022/02/06 01:09:08;;;;;;;3.10;0.90;;;16.40;58.40;;;;;;4983522;28;20054;-64
2022/02/06 01:11:36;;;;;;;3.13;0.90;;;16.40;58.40;;;;;;4983676;28;20077;-65
2022/02/06 01:14:15;;;;;;;2.22;0.80;;;16.40;58.30;;;;;;4982863;28;20042;-64
2022/02/06 01:16:49;;;;;;;1.55;0.85;;;16.40;58.20;;;;;;4968030;28;20062;-55
2022/02/06 01:19:21;;;;;;;1.00;0.80;;;16.40;58.20;;;;;;4984079;28;20027;-57
2022/02/06 01:22:02;;;;;;;2.75;0.70;;;16.40;58.30;;;;;;4980200;28;20094;-54
2022/02/06 01:27:37;;;;;;;2.55;0.70;;;16.40;58.20;;;;;;4960902;28;20041;-54
2022/02/06 01:30:13;;;;;;;1.70;1.00;;;16.40;57.70;;;;;;4983512;28;20026;-60
2022/02/06 01:32:50;;;;;;;2.35;0.98;;;16.40;58.20;;;;;;4981536;28;20054;-59
2022/02/06 01:35:20;;;;;;;4.20;1.40;;;16.30;57.70;;;;;;4983893;28;20030;-54
2022/02/06 01:38:07;;;;;;;1.63;0.85;;;16.40;57.60;;;;;;4983224;28;20054;-57
2022/02/06 01:40:42;;;;;;;2.95;0.80;;;16.30;56.70;;;;;;4983149;28;20026;-60
2022/02/06 01:43:14;;;;;;;2.67;0.88;;;16.30;58.10;;;;;;4982623;28;20227;-58
2022/02/06 01:46:03;;;;;;;1.20;0.88;;;16.30;58.40;;;;;;4984682;28;20065;-55
2022/02/06 02:18:30;;;;;;;2.25;0.88;;;16.20;58.10;;;;;;4966601;28;20034;-61
2022/02/06 02:21:29;;;;;;;3.25;0.93;;;16.10;57.60;;;;;;4982030;28;20077;-63
2022/02/06 02:48:16;;;;;;;4.20;0.98;;;16.10;58.10;;;;;;4995818;28;20035;-58
2022/02/06 02:50:46;;;;;;;3.60;0.98;;;16.00;57.90;;;;;;4981965;28;20049;-62
2022/02/06 03:01:06;;;;;;;18.83;1.90;;;16.10;58.30;;;;;;4980661;28;20030;-62
2022/02/06 03:03:25;;;;;;;7.25;1.75;;;16.10;58.30;;;;;;4979656;28;20042;-61
2022/02/06 03:05:53;;;;;;;6.32;1.40;;;16.10;57.90;;;;;;4981933;28;20057;-58
2022/02/06 03:08:20;;;;;;;12.88;1.35;;;16.10;58.50;;;;;;4982456;28;20038;-61
2022/02/06 03:10:45;;;;;;;8.80;1.27;;;16.00;58.80;;;;;;4980454;28;20030;-62
2022/02/06 03:13:15;;;;;;;6.38;1.48;;;16.00;58.60;;;;;;4981063;28;20038;-58
2022/02/06 03:18:18;;;;;;;3.67;0.98;;;16.00;58.40;;;;;;4982646;28;20054;-62
2022/02/06 03:20:44;;;;;;;2.58;1.08;;;16.00;58.10;;;;;;4981274;28;20076;-61
2022/02/06 03:23:11;;;;;;;4.53;1.08;;;16.00;58.30;;;;;;4982778;28;20400;-59
2022/02/06 03:25:46;;;;;;;5.43;0.75;;;16.00;56.70;;;;;;4982345;28;20030;-62
2022/02/06 03:28:11;;;;;;;1.30;0.80;;;16.00;58.10;;;;;;4982396;28;20046;-61
2022/02/06 03:30:37;;;;;;;1.77;0.52;;;15.90;58.20;;;;;;4981617;28;20042;-60
2022/02/06 03:33:02;;;;;;;1.80;0.77;;;15.90;58.30;;;;;;4981509;28;20043;-61
2022/02/06 03:35:28;;;;;;;3.33;1.00;;;15.90;57.90;;;;;;4981643;28;20081;-62
2022/02/06 03:37:53;;;;;;;2.35;0.90;;;15.90;56.20;;;;;;4982075;28;20484;-60
2022/02/06 03:40:26;;;;;;;1.90;0.68;;;15.90;58.00;;;;;;4981989;28;20035;-59
2022/02/06 03:43:08;;;;;;;1.85;1.00;;;15.90;57.50;;;;;;4980805;28;20050;-59
2022/02/06 03:45:45;;;;;;;2.08;1.00;;;15.90;57.20;;;;;;4977065;28;20104;-60
2022/02/06 03:48:14;;;;;;;2.70;1.38;;;15.90;56.30;;;;;;4986160;28;20189;-62
2022/02/06 03:50:46;;;;;;;1.10;0.68;;;15.90;57.60;;;;;;4986053;28;20554;-63
2022/02/06 03:53:12;;;;;;;1.70;0.70;;;15.90;57.70;;;;;;4984348;28;20535;-61
2022/02/06 03:55:38;;;;;;;1.00;0.70;;;15.90;57.00;;;;;;4985252;28;20080;-63
2022/02/06 03:58:03;;;;;;;1.75;0.88;;;15.90;57.20;;;;;;4967993;28;20042;-64
2022/02/06 04:00:29;;;;;;;4.57;1.00;;;15.90;57.20;;;;;;4984533;28;20026;-63
2022/02/06 04:02:54;;;;;;;3.13;0.90;;;15.90;57.50;;;;;;4983590;28;20639;-64
2022/02/06 04:05:20;;;;;;;2.05;0.93;;;15.90;57.60;;;;;;4984891;28;20030;-60
2022/02/06 04:07:46;;;;;;;1.48;0.60;;;15.80;58.00;;;;;;4983973;28;20045;-64
2022/02/06 04:10:14;;;;;;;1.38;0.73;;;15.80;56.90;;;;;;4985064;28;20037;-61
2022/02/06 04:12:42;;;;;;;0.88;0.80;;;15.80;57.40;;;;;;4964796;28;20038;-63
2022/02/06 04:15:14;;;;;;;1.65;0.50;;;15.80;57.10;;;;;;4984824;28;20038;-62
2022/02/06 04:17:50;;;;;;;3.45;0.90;;;15.80;57.90;;;;;;4982555;28;20097;-59
2022/02/06 04:20:16;;;;;;;2.00;0.82;;;15.80;58.00;;;;;;4983162;28;20026;-61
2022/02/06 04:22:41;;;;;;;3.30;1.27;;;15.80;58.10;;;;;;4984720;28;20491;-61
2022/02/06 04:25:07;;;;;;;2.17;1.30;;;15.80;58.10;;;;;;4985493;28;20093;-59
2022/02/06 04:27:32;;;;;;;1.83;0.77;;;15.80;57.80;;;;;;4985516;28;20035;-62
2022/02/06 04:29:58;;;;;;;4.20;1.00;;;15.80;58.10;;;;;;4983316;28;20034;-57
2022/02/06 04:32:26;;;;;;;2.15;0.88;;;15.80;56.40;;;;;;4983570;28;20408;-59
2022/02/06 04:34:53;;;;;;;5.85;0.80;;;15.80;57.70;;;;;;4976894;28;20117;-52
2022/02/06 04:37:29;;;;;;;4.93;0.90;;;15.80;58.00;;;;;;5012254;28;20034;-56
2022/02/06 04:40:20;;;;;;;1.88;0.73;;;15.80;57.70;;;;;;4983224;28;20027;-53
2022/02/06 04:45:58;;;;;;;1.55;0.77;;;15.80;57.70;;;;;;4985330;28;20097;-58
2022/02/06 04:52:01;;;;;;;1.58;0.50;;;15.70;57.00;;;;;;4984939;28;20030;-59
2022/02/06 05:18:19;;;;;;;3.72;0.90;;;15.70;57.60;;;;;;4981089;28;20821;-57
2022/02/06 05:23:32;;;;;;;4.28;0.95;;;15.60;57.40;;;;;;4984637;28;20042;-60
2022/02/06 05:28:37;;;;;;;1.73;0.60;;;15.60;57.20;;;;;;4984172;28;20045;-59
2022/02/06 05:31:08;;;;;;;2.13;0.70;;;15.60;57.30;;;;;;4980139;28;20027;-57
2022/02/06 05:33:35;;;;;;;1.42;0.70;;;15.60;57.40;;;;;;4966779;28;20026;-61
2022/02/06 05:36:03;;;;;;;2.25;0.80;;;15.60;57.20;;;;;;4983632;28;20181;-61
2022/02/06 05:38:28;;;;;;;2.80;0.70;;;15.60;57.10;;;;;;4984041;28;20038;-62
2022/02/06 05:40:54;;;;;;;4.75;0.98;;;15.60;57.50;;;;;;4982472;28;20117;-56
2022/02/06 05:43:20;;;;;;;2.40;0.70;;;15.60;57.60;;;;;;4984092;28;20046;-54
2022/02/06 05:45:45;;;;;;;2.47;0.80;;;15.60;57.40;;;;;;4983578;28;20113;-57
2022/02/06 05:48:11;;;;;;;3.95;0.70;;;15.50;56.20;;;;;;4982794;28;20491;-61
2022/02/06 05:50:39;;;;;;;2.88;0.60;;;15.50;57.30;;;;;;4983603;28;20097;-58
2022/02/06 05:53:05;;;;;;;2.65;0.70;;;15.60;56.70;;;;;;4983521;28;20193;-57
2022/02/06 05:55:30;;;;;;;2.33;0.50;;;15.50;57.30;;;;;;4981976;28;20176;-55
2022/02/06 05:57:56;;;;;;;1.63;0.73;;;15.50;57.00;;;;;;4983844;28;20038;-54
2022/02/06 06:00:21;;;;;;;2.55;0.90;;;15.50;57.50;;;;;;4980764;28;20041;-54
2022/02/06 06:02:47;;;;;;;2.25;0.60;;;15.50;55.80;;;;;;4983188;28;20037;-58
2022/02/06 06:05:12;;;;;;;1.27;0.60;;;15.50;56.90;;;;;;4981348;28;20057;-59
2022/02/06 06:07:42;;;;;;;1.40;0.50;;;15.50;56.20;;;;;;5008881;28;20042;-57
2022/02/06 06:10:08;;;;;;;1.20;0.73;;;15.50;57.10;;;;;;4981117;28;20053;-56
2022/02/06 06:12:34;;;;;;;1.45;0.50;;;15.50;57.20;;;;;;4983245;28;20037;-59
2022/02/06 06:15:01;;;;;;;1.55;0.73;;;15.40;57.30;;;;;;4983178;28;20031;-60
2022/02/06 06:17:26;;;;;;;0.40;0.40;;;15.40;56.90;;;;;;4981446;28;20635;-53
2022/02/06 06:19:54;;;;;;;1.50;0.85;;;15.40;57.90;;;;;;4982294;28;20029;-57
2022/02/06 06:22:20;;;;;;;0.80;0.50;;;15.50;57.50;;;;;;4983078;28;20088;-60
2022/02/06 06:24:51;;;;;;;1.50;0.60;;;15.50;57.30;;;;;;4983360;28;20030;-58
2022/02/06 06:27:17;;;;;;;0.73;0.40;;;15.40;57.30;;;;;;4983341;28;20395;-56
2022/02/06 06:29:42;;;;;;;2.72;0.52;;;15.50;56.70;;;;;;4983385;28;20041;-57
2022/02/06 06:32:08;;;;;;;2.30;0.60;;;15.50;57.30;;;;;;4982533;28;20503;-59
2022/02/06 06:34:33;;;;;;;1.88;0.50;;;15.50;57.20;;;;;;4983052;28;20084;-60
2022/02/06 06:36:59;;;;;;;2.65;0.60;;;15.50;57.50;;;;;;4982769;28;20411;-61
2022/02/06 06:39:36;;;;;;;6.80;0.70;;;15.50;57.30;;;;;;4983345;28;20046;-62
2022/02/06 06:42:02;;;;;;;7.85;0.95;;;15.40;57.70;;;;;;4985208;28;20027;-63
2022/02/06 06:44:27;;;;;;;7.00;0.80;;;15.50;58.00;;;;;;4983843;28;20044;-57
2022/02/06 06:46:54;;;;;;;4.45;1.20;;;15.50;57.30;;;;;;4982580;28;20050;-59
2022/02/06 06:49:19;;;;;;;4.40;0.95;;;15.50;57.90;;;;;;4981973;28;20050;-55
2022/02/06 06:51:45;;;;;;;3.03;0.95;;;15.40;57.50;;;;;;4982294;28;20027;-57
2022/02/06 06:54:16;;;;;;;3.15;0.80;;;15.50;56.90;;;;;;4981004;28;20030;-54
2022/02/06 06:57:02;;;;;;;3.13;0.70;;;15.40;57.60;;;;;;4981618;28;20491;-53
2022/02/06 07:04:57;;;;;;;1.65;0.65;;;15.40;57.00;;;;;;4982414;28;20026;-60
2022/02/06 07:07:23;;;;;;;5.43;1.00;;;15.40;57.40;;;;;;4982292;28;20031;-60
2022/02/06 07:09:48;;;;;;;4.35;0.95;;;15.40;57.60;;;;;;4980638;28;20031;-59
2022/02/06 07:12:14;;;;;;;5.45;1.17;;;15.40;57.20;;;;;;4982984;28;20034;-58
2022/02/06 07:14:40;;;;;;;2.22;0.80;;;15.40;56.50;;;;;;4982606;28;20026;-61
2022/02/06 07:17:05;;;;;;;2.47;0.50;;;15.50;57.30;;;;;;4982779;28;20046;-60
2022/02/06 07:19:31;;;;;;;3.47;0.75;;;15.40;56.70;;;;;;4980210;28;20034;-57
2022/02/06 07:21:57;;;;;;;3.22;0.68;;;15.40;57.50;;;;;;4980460;28;20488;-59
2022/02/06 07:24:25;;;;;;;0.98;0.50;;;15.40;56.60;;;;;;4981755;28;20069;-60
2022/02/06 07:26:54;;;;;;;0.82;0.50;;;15.40;57.20;;;;;;4981434;28;20035;-57
2022/02/06 07:29:20;;;;;;;1.42;0.60;;;15.40;57.30;;;;;;4980057;28;20117;-58
2022/02/06 07:31:46;;;;;;;4.35;0.65;;;15.40;56.40;;;;;;4982514;28;20110;-58
2022/02/06 07:34:12;;;;;;;14.32;1.73;;;15.30;57.40;;;;;;4983261;28;20027;-58
2022/02/06 07:36:37;;;;;;;8.88;1.45;;;15.40;57.90;;;;;;4982051;28;20048;-54
2022/02/06 07:39:04;;;;;;;2.17;0.98;;;15.50;57.60;;;;;;4988127;28;20042;-58
2022/02/06 07:41:29;;;;;;;5.47;0.80;;;15.50;57.30;;;;;;4987168;28;20033;-56
2022/02/06 07:43:55;;;;;;;1.98;0.60;;;15.60;57.30;;;;;;4984294;28;20035;-59
2022/02/06 07:46:24;;;;;;;5.43;0.70;;;15.60;57.10;;;;;;4980385;28;20117;-58
2022/02/06 07:48:50;;;;;;;4.40;0.80;;;15.60;57.00;;;;;;4983993;28;20547;-58
2022/02/06 07:51:15;;;;;;;2.97;0.90;;;15.60;57.00;;;;;;4981000;28;20023;-60
2022/02/06 07:53:40;;;;;;;3.58;1.10;;;15.60;57.00;;;;;;4982720;28;20943;-58
2022/02/06 07:56:06;;;;;;;2.83;0.70;;;15.60;57.00;;;;;;4982122;28;20510;-57
2022/02/06 07:58:31;;;;;;;2.50;0.80;;;15.60;57.00;;;;;;4980744;28;20129;-60
2022/02/06 08:00:57;;;;;;;3.33;0.77;;;15.60;57.00;;;;;;4981625;28;20026;-61
2022/02/06 08:03:24;;;;;;;2.42;0.70;;;15.60;57.10;;;;;;4981538;28;20035;-61
2022/02/06 08:05:51;;;;;;;2.20;0.63;;;15.70;57.10;;;;;;4973675;28;20046;-59
2022/02/06 08:08:16;;;;;;;7.10;1.00;;;15.60;57.10;;;;;;4982740;28;20577;-57
2022/02/06 08:10:42;;;;;;;2.85;0.90;;;15.60;57.20;;;;;;4981805;28;20134;-60
2022/02/06 08:13:12;;;;;;;8.32;1.20;;;15.60;57.30;;;;;;4981440;28;20117;-60
2022/02/06 08:15:37;;;;;;;6.15;0.80;;;15.60;57.30;;;;;;4981567;28;20041;-60
2022/02/06 08:18:06;;;;;;;3.97;1.17;;;15.60;57.30;;;;;;4981517;28;20428;-56
2022/02/06 08:20:32;;;;;;;3.30;1.27;;;15.60;57.30;;;;;;4980610;28;20034;-59
2022/02/06 08:22:57;;;;;;;4.25;1.25;;;15.60;57.30;;;;;;4976007;28;20538;-60
2022/02/06 08:25:24;;;;;;;3.35;1.23;;;15.60;57.30;;;;;;4981971;28;20038;-59
2022/02/06 08:27:50;;;;;;;4.63;0.98;;;15.60;57.30;;;;;;4980947;28;20042;-59
2022/02/06 08:30:15;;;;;;;3.20;1.05;;;15.60;57.30;;;;;;4979530;28;20121;-58
2022/02/06 08:32:41;;;;;;;5.43;1.48;;;15.60;57.30;;;;;;4982113;28;20038;-59
2022/02/06 08:35:06;;;;;;;4.35;1.60;;;15.60;57.20;;;;;;4984784;28;20045;-58
2022/02/06 08:37:32;;;;;;;7.07;1.17;;;15.60;57.30;;;;;;4983772;28;20034;-54
2022/02/06 08:39:58;;;;;;;1.35;1.05;;;15.60;57.30;;;;;;4982546;28;20030;-56
2022/02/06 08:42:23;;;;;;;5.95;1.27;;;15.60;57.20;;;;;;4984475;28;20081;-57
2022/02/06 08:44:49;;;;;;;2.15;1.17;;;15.60;57.20;;;;;;4984336;28;20036;-61
2022/02/06 08:47:16;;;;;;;3.42;1.13;;;15.60;57.20;;;;;;4990998;28;20095;-55
2022/02/06 08:49:41;;;;;;;2.42;1.00;;;15.60;57.10;;;;;;4999326;28;20030;-56
2022/02/06 08:52:08;;;;;;;3.85;1.10;;;15.60;57.10;;;;;;4985145;28;20615;-57
2022/02/06 08:54:35;;;;;;;2.45;1.00;;;15.60;57.10;;;;;;4984523;28;20031;-58
2022/02/06 08:57:03;;;;;;;4.63;1.45;;;15.60;57.10;;;;;;4984032;28;20039;-56
2022/02/06 08:59:30;;;;;;;5.05;1.13;;;15.60;57.10;;;;;;4984086;28;20137;-61
2022/02/06 09:01:57;;;;;;;1.10;0.77;;;15.60;57.00;;;;;;4983581;28;20031;-61
2022/02/06 09:04:23;;;;;;;3.72;1.50;;;15.60;57.00;;;;;;4983862;28;20484;-58
2022/02/06 09:06:48;;;;;;;1.90;1.00;;;15.60;57.10;;;;;;4984081;28;20039;-58
2022/02/06 09:09:15;;;;;;;4.10;1.20;;;15.50;56.90;;;;;;4985186;28;20026;-60
2022/02/06 09:11:40;;;;;;;3.40;1.40;;;15.60;57.10;;;;;;4984118;28;20201;-55
2022/02/06 09:14:06;;;;;;;3.88;1.35;;;15.60;57.00;;;;;;4983003;28;20601;-60
2022/02/06 09:16:32;;;;;;;2.28;1.00;;;15.60;57.00;;;;;;4983955;28;20022;-59
2022/02/06 09:18:59;;;;;;;2.08;1.20;;;15.60;57.00;;;;;;4983969;28;20062;-57
2022/02/06 09:21:24;;;;;;;3.95;1.17;;;15.60;57.00;;;;;;4984071;28;20638;-58
2022/02/06 09:23:50;;;;;;;6.75;1.40;;;15.60;57.00;;;;;;4984559;28;20023;-57
2022/02/06 09:26:16;;;;;;;2.28;1.10;;;15.50;56.90;;;;;;4984455;28;20060;-58
2022/02/06 09:28:43;;;;;;;4.68;1.40;;;15.60;56.90;;;;;;4983782;28;20022;-56
2022/02/06 09:31:09;;;;;;;2.50;1.10;;;15.50;56.90;;;;;;4983760;28;20387;-58
2022/02/06 09:36:00;;;;;;;3.63;1.80;;;15.50;56.90;;;;;;4983336;28;20042;-57
2022/02/06 09:38:26;;;;;;;2.45;1.30;;;15.60;57.00;;;;;;4967021;28;20380;-59
2022/02/06 09:40:51;;;;;;;5.70;1.40;;;15.50;56.90;;;;;;4983287;28;20033;-61
2022/02/06 09:43:17;;;;;;;3.55;1.33;;;15.60;56.90;;;;;;4981998;28;20042;-58
2022/02/06 09:45:42;;;;;;;2.85;1.25;;;15.50;56.90;;;;;;4962852;28;20027;-59
2022/02/06 09:48:10;;;;;;;3.90;1.85;;;15.50;56.90;;;;;;4998507;28;20045;-58
2022/02/06 09:50:35;;;;;;;5.20;2.42;;;15.50;56.90;;;;;;4983087;28;20046;-57
2022/02/06 09:53:01;;;;;;;8.98;3.20;;;15.60;57.00;;;;;;4983551;28;20507;-58
2022/02/06 09:55:26;;;;;;;10.45;4.32;;;15.50;57.00;;;;;;4982438;28;20038;-59
2022/02/06 09:58:00;;;;;;;13.90;4.68;;;15.50;57.00;;;;;;4983560;28;20054;-60
2022/02/06 10:00:29;;;;;;;12.55;5.13;;;15.50;57.10;;;;;;4982977;28;20519;-59
2022/02/06 10:03:02;;;;;;;17.73;6.15;;;15.60;57.20;;;;;;4982394;28;20049;-58
2022/02/06 10:05:33;;;;;;;17.75;6.75;;;15.60;57.20;;;;;;4976163;28;20074;-53
2022/02/06 10:08:04;;;;;;;12.77;5.95;;;15.60;57.30;;;;;;4982021;28;20038;-60
2022/02/06 10:10:29;;;;;;;17.70;6.90;;;15.50;57.30;;;;;;4982789;28;20022;-58
2022/02/06 10:12:55;;;;;;;15.60;6.75;;;15.50;57.30;;;;;;4981489;28;20058;-60
2022/02/06 10:15:21;;;;;;;16.05;5.93;;;15.50;57.30;;;;;;4981479;28;20035;-59
2022/02/06 10:17:48;;;;;;;19.17;6.53;;;15.60;57.30;;;;;;4983679;28;20499;-58
2022/02/06 10:20:18;;;;;;;17.80;7.35;;;15.50;57.30;;;;;;4982922;28;20030;-59
2022/02/06 10:22:58;;;;;;;17.13;6.93;;;15.50;57.30;;;;;;4983319;28;20034;-59
2022/02/06 10:25:24;;;;;;;20.10;7.90;;;15.50;57.30;;;;;;4982276;28;20038;-57
2022/02/06 10:30:43;;;;;;;17.80;7.68;;;15.50;57.30;;;;;;4982669;28;20054;-67
2022/02/06 10:33:15;;;;;;;28.35;10.65;;;15.60;58.20;;;;;;4965144;28;20043;-56
2022/02/06 10:35:42;;;;;;;31.15;10.18;;;15.60;59.20;;;;;;4982618;28;20057;-53
2022/02/06 10:38:21;;;;;;;36.60;11.27;;;15.60;59.20;;;;;;4982712;28;20109;-56
2022/02/06 10:41:04;;;;;;;27.60;10.18;;;15.60;58.90;;;;;;4981314;28;20436;-56
2022/02/06 10:43:29;;;;;;;26.42;9.65;;;15.60;58.50;;;;;;4982329;28;20409;-58
2022/02/06 10:46:11;;;;;;;25.35;9.25;;;15.60;58.30;;;;;;4983258;28;20038;-54
2022/02/06 10:48:47;;;;;;;30.65;10.45;;;15.60;58.20;;;;;;4974090;28;20041;-55
2022/02/06 10:51:38;;;;;;;25.55;8.73;;;15.60;58.10;;;;;;4982395;28;20030;-57
2022/02/06 10:54:05;;;;;;;24.95;8.95;;;15.60;58.10;;;;;;4982481;28;20037;-57
2022/02/06 10:56:31;;;;;;;22.08;8.57;;;15.60;58.00;;;;;;4982007;28;20053;-57
2022/02/06 10:59:01;;;;;;;25.75;9.30;;;15.60;57.90;;;;;;4982327;28;20081;-57
2022/02/06 11:01:29;;;;;;;22.83;8.45;;;15.60;57.80;;;;;;4982796;28;20035;-54
2022/02/06 11:04:19;;;;;;;23.65;8.82;;;15.60;57.80;;;;;;4981039;28;20760;-53
2022/02/06 11:06:48;;;;;;;19.75;8.27;;;15.60;57.80;;;;;;4982145;28;20088;-55
2022/02/06 11:09:29;;;;;;;23.52;8.40;;;15.60;57.80;;;;;;4980092;28;20038;-58
2022/02/06 11:12:03;;;;;;;30.83;8.77;;;15.60;57.70;;;;;;4977983;28;21777;-58
2022/02/06 11:14:30;;;;;;;19.05;7.43;;;15.60;57.70;;;;;;4980677;28;20054;-55
2022/02/06 11:16:57;;;;;;;20.80;8.50;;;15.60;57.70;;;;;;4982662;28;20050;-55
2022/02/06 11:19:22;;;;;;;26.10;8.52;;;15.60;57.70;;;;;;4979568;28;20035;-56
2022/02/06 11:22:06;;;;;;;22.33;8.88;;;15.60;57.70;;;;;;4982285;28;20558;-54
2022/02/06 11:24:36;;;;;;;26.55;7.60;;;15.60;57.80;;;;;;4982015;28;20029;-57
2022/02/06 11:27:01;;;;;;;18.02;7.50;;;15.60;57.80;;;;;;4982055;28;20407;-58
2022/02/06 11:29:27;;;;;;;22.27;7.55;;;15.60;57.70;;;;;;4963410;28;20026;-56
2022/02/06 11:31:55;;;;;;;16.70;7.60;;;15.60;57.70;;;;;;4980587;28;20747;-59
2022/02/06 11:34:22;;;;;;;18.63;6.82;;;15.60;57.70;;;;;;4981796;28;20038;-57
2022/02/06 11:45:32;;;;;;;14.52;6.63;;;15.60;57.70;;;;;;4967449;28;20041;-55
2022/02/06 11:48:02;;;;;;;13.68;6.68;;;15.60;57.70;;;;;;4980698;28;20051;-56
2022/02/06 11:50:30;;;;;;;13.02;5.85;;;15.60;57.70;;;;;;4979521;28;20026;-58
2022/02/06 11:52:55;;;;;;;14.23;5.72;;;15.60;57.70;;;;;;4980505;28;20101;-59
2022/02/06 11:55:43;;;;;;;12.00;5.75;;;15.60;57.70;;;;;;4981905;28;20037;-59
2022/02/06 11:58:31;;;;;;;17.27;6.00;;;15.60;57.70;;;;;;5010570;22;20048;-63
2022/02/06 12:01:05;;;;;;;14.10;6.13;;;15.60;57.70;;;;;;5035599;28;20377;-63
2022/02/06 12:04:06;;;;;;;11.25;5.28;;;15.50;57.60;;;;;;5034683;28;20051;-64
2022/02/06 12:06:37;;;;;;;14.05;6.00;;;15.50;57.60;;;;;;5028658;28;20029;-64
2022/02/06 12:09:02;;;;;;;10.20;5.60;;;15.50;57.60;;;;;;5027881;28;20029;-64
2022/02/06 12:11:37;;;;;;;13.15;5.70;;;15.50;57.60;;;;;;5013770;28;20409;-63
2022/02/06 12:14:13;;;;;;;11.47;5.43;;;15.50;57.60;;;;;;5012897;28;20022;-63
2022/02/06 12:16:50;;;;;;;11.35;5.72;;;15.50;57.60;;;;;;5017055;28;20264;-63
2022/02/06 12:19:29;;;;;;;14.70;5.22;;;15.50;57.60;;;;;;5017280;28;20033;-64
2022/02/06 12:21:55;;;;;;;11.43;4.82;;;15.50;57.50;;;;;;5020854;28;20028;-63
2022/02/06 12:24:42;;;;;;;12.45;4.88;;;15.50;57.50;;;;;;5015775;28;20030;-63
2022/02/06 12:27:24;;;;;;;8.23;4.93;;;15.50;57.60;;;;;;5013174;28;20037;-63
2022/02/06 12:29:56;;;;;;;10.82;4.53;;;15.50;57.60;;;;;;5013531;28;20018;-64
2022/02/06 12:32:32;;;;;;;9.77;4.63;;;15.50;57.60;;;;;;5016509;28;20025;-61
2022/02/06 12:37:42;;;;;;;12.98;5.13;;;15.50;57.50;;;;;;5013118;28;20037;-61
2022/02/06 12:40:15;;;;;;;15.05;4.65;;;15.50;57.50;;;;;;5013703;28;20026;-62
2022/02/06 12:42:43;;;;;;;11.95;5.22;;;15.50;57.50;;;;;;5013480;28;20041;-62
2022/02/06 12:45:11;;;;;;;10.30;5.13;;;15.50;57.50;;;;;;5017504;28;20033;-62
2022/02/06 12:47:48;;;;;;;9.00;4.45;;;15.50;57.50;;;;;;5014233;28;20042;-62
2022/02/06 12:50:25;;;;;;;8.60;4.20;;;15.50;57.50;;;;;;5016921;28;20468;-62
2022/02/06 12:52:51;;;;;;;10.27;4.30;;;15.50;58.10;;;;;;5013306;28;20370;-62
2022/02/06 12:55:17;;;;;;;7.35;4.00;;;15.50;57.40;;;;;;5023032;28;20063;-62
2022/02/06 12:57:50;;;;;;;12.30;4.38;;;15.50;57.40;;;;;;5019339;28;20017;-61
2022/02/06 13:00:29;;;;;;;7.93;4.22;;;15.50;57.30;;;;;;5010002;28;20026;-63
2022/02/06 13:03:18;;;;;;;9.77;4.60;;;15.50;57.40;;;;;;5014256;28;20384;-63
2022/02/06 13:05:56;;;;;;;8.10;3.72;;;15.50;57.30;;;;;;5017452;28;20034;-62
2022/02/06 13:08:22;;;;;;;8.27;3.50;;;15.50;57.30;;;;;;5016357;28;20500;-64
2022/02/06 13:10:50;;;;;;;9.07;3.90;;;15.50;57.30;;;;;;5012110;28;20084;-62
2022/02/06 13:13:18;;;;;;;7.28;3.38;;;15.40;57.30;;;;;;5018084;28;20025;-62
2022/02/06 13:16:02;;;;;;;10.05;3.40;;;15.50;57.40;;;;;;5013944;28;20029;-61
2022/02/06 13:19:09;;;;;;;6.25;3.47;;;15.50;57.40;;;;;;5016390;28;20030;-63
2022/02/06 13:21:35;;;;;;;8.18;4.05;;;15.50;57.40;;;;;;5016549;28;20574;-63
2022/02/06 13:24:12;;;;;;;12.48;4.15;;;15.50;57.40;;;;;;5021233;28;20029;-60
2022/02/06 13:27:01;;;;;;;14.48;5.35;;;15.40;57.30;;;;;;5027195;28;20021;-61
2022/02/06 13:29:49;;;;;;;18.17;6.05;;;15.40;57.40;;;;;;5013612;28;20492;-60
2022/02/06 13:32:28;;;;;;;17.17;5.85;;;15.40;57.60;;;;;;5011140;28;20022;-62
2022/02/06 13:35:41;;;;;;;19.10;7.45;;;15.40;57.70;;;;;;5018110;28;20022;-62
2022/02/06 13:37:59;;;;;;;20.52;6.30;;;15.40;57.70;;;;;;5015649;28;20523;-62
2022/02/06 13:40:30;;;;;;;17.77;7.60;;;15.40;57.60;;;;;;5005627;28;20497;-61
2022/02/06 13:43:05;;;;;;;16.65;6.00;;;15.40;57.60;;;;;;5012792;28;20040;-62
2022/02/06 13:45:33;;;;;;;18.23;6.80;;;15.40;57.60;;;;;;5007095;28;20048;-60
2022/02/06 13:48:00;;;;;;;15.38;5.78;;;15.40;57.70;;;;;;5012159;28;20088;-61
2022/02/06 13:50:26;;;;;;;15.30;6.20;;;15.40;57.60;;;;;;5022079;28;20021;-62
2022/02/06 13:53:17;;;;;;;14.45;5.38;;;15.40;57.60;;;;;;5012065;28;20096;-61
2022/02/06 13:55:46;;;;;;;15.85;6.05;;;15.40;57.60;;;;;;5010612;28;20029;-61
2022/02/06 13:58:13;;;;;;;17.05;5.90;;;15.40;57.60;;;;;;5016230;28;20044;-60
2022/02/06 14:00:39;;;;;;;16.38;5.70;;;15.40;57.70;;;;;;5014165;28;20136;-61
2022/02/06 14:03:04;;;;;;;20.15;6.10;;;15.40;57.60;;;;;;5011746;28;20116;-60
2022/02/06 14:05:31;;;;;;;16.70;5.78;;;15.40;57.70;;;;;;5013176;28;20025;-60
2022/02/06 14:08:17;;;;;;;15.23;5.72;;;15.40;57.60;;;;;;4999185;28;20029;-60
2022/02/06 14:11:01;;;;;;;;;;;15.40;57.50;;;;;;5020286;28;20096;-60
2022/02/06 14:13:28;;;;;;;14.10;4.78;;;15.40;57.50;;;;;;5013721;28;20335;-62
2022/02/06 14:16:09;;;;;;;19.83;5.93;;;15.40;57.40;;;;;;5007101;28;20099;-60
2022/02/06 14:18:44;;;;;;;11.90;5.32;;;15.40;57.40;;;;;;5013866;28;20037;-63
2022/02/06 14:21:10;;;;;;;15.07;4.88;;;15.40;57.40;;;;;;5001849;28;20077;-59
2022/02/06 14:23:35;;;;;;;15.63;5.40;;;15.40;57.30;;;;;;4995453;28;20459;-60
2022/02/06 14:26:14;;;;;;;17.33;5.00;;;15.40;57.40;;;;;;5018734;28;20041;-60
2022/02/06 14:28:47;;;;;;;13.35;4.68;;;15.40;57.40;;;;;;5012125;28;20120;-61
2022/02/06 14:31:22;;;;;;;10.55;4.43;;;15.30;57.30;;;;;;5021018;28;20373;-61
2022/02/06 14:33:48;;;;;;;12.70;4.47;;;15.30;57.30;;;;;;5012768;28;20033;-53
2022/02/06 14:36:17;;;;;;;11.57;4.88;;;15.30;57.30;;;;;;5008708;28;20026;-60
2022/02/06 14:38:59;;;;;;;10.98;4.60;;;15.30;57.20;;;;;;5015126;28;20047;-56
2022/02/06 14:44:08;;;;;;;11.40;4.70;;;15.30;57.10;;;;;;5030401;28;20393;-60
2022/02/06 14:46:34;;;;;;;9.60;4.13;;;15.30;57.20;;;;;;4997001;28;20049;-58
2022/02/06 14:49:02;;;;;;;9.95;4.50;;;15.30;57.10;;;;;;5013694;28;20025;-60
2022/02/06 14:51:30;;;;;;;10.90;3.95;;;15.30;57.20;;;;;;5012023;28;20036;-58
2022/02/06 14:54:00;;;;;;;9.13;3.85;;;15.30;57.10;;;;;;5011111;28;20022;-60
2022/02/06 14:56:27;;;;;;;7.78;3.42;;;15.30;57.20;;;;;;5001558;28;20033;-60
2022/02/06 14:58:53;;;;;;;10.40;4.15;;;15.30;57.10;;;;;;5023896;28;20117;-61
2022/02/06 15:01:18;;;;;;;10.02;4.07;;;15.30;57.10;;;;;;5016688;28;20059;-51
2022/02/06 15:03:44;;;;;;;8.70;3.58;;;15.30;57.10;;;;;;5018420;28;20025;-59
2022/02/06 15:06:09;;;;;;;8.75;3.58;;;15.30;57.10;;;;;;5014627;28;20034;-60
2022/02/06 15:08:35;;;;;;;6.97;3.40;;;15.30;57.10;;;;;;5006782;28;20132;-54
2022/02/06 15:11:00;;;;;;;9.05;3.60;;;15.30;57.10;;;;;;5007595;28;20038;-60